Kahuta Weather



Kahuta's Current Weather

Temprature 12.12o smoke

smoke

Rain: 0 %

Min Temprature10o
Max Temprature13.89o
Humidity76
Wind Speed3.19 m/h
Sun Rise06:21:49
Sun Set17:18:24
Current Time: 28-Oct-2020 04:54:53
Lat/Lon: 33.59, 73.39




Kahuta's Geo Location



Kahuta's Weather Forecast

Time Overall Temp Min Temp Max Temp Humidity Wind Speed Rain
28-Oct-2020 (Wed)
05:00:00 clear sky 14.010 14.010 15.990 54 3.19 m/h 0 %
08:00:00 clear sky 18.640 18.640 20.440 35 2.39 m/h 0 %
11:00:00 clear sky 26.110 26.110 27.070 19 2.4 m/h 0 %
14:00:00 clear sky 28.260 28.260 28.390 14 2.82 m/h 0 %
17:00:00 clear sky 22.740 22.740 22.740 20 1.26 m/h 0 %
20:00:00 clear sky 18.790 18.790 18.790 25 2.21 m/h 0 %
23:00:00 clear sky 17.710 17.710 17.710 27 3.52 m/h 0 %
29-Oct-2020 (Thu)
02:00:00 clear sky 17.030 17.030 17.030 28 3.62 m/h 0 %
05:00:00 clear sky 16.230 16.230 16.230 30 3.24 m/h 0 %
08:00:00 clear sky 20.490 20.490 20.490 24 2.71 m/h 0 %
11:00:00 clear sky 27.370 27.370 27.370 15 2.27 m/h 0 %
14:00:00 few clouds 28.390 28.390 28.390 14 2.41 m/h 0 %
17:00:00 clear sky 22.980 22.980 22.980 20 1.34 m/h 0 %
20:00:00 clear sky 19.070 19.070 19.070 26 2.64 m/h 0 %
23:00:00 clear sky 17.690 17.690 17.690 28 3.49 m/h 0 %
30-Oct-2020 (Fri)
02:00:00 clear sky 16.800 16.800 16.800 29 3.52 m/h 0 %
05:00:00 clear sky 16.020 16.020 16.020 31 3.13 m/h 0 %
08:00:00 clear sky 20.170 20.170 20.170 24 2.55 m/h 0 %
11:00:00 clear sky 27.780 27.780 27.780 15 1.71 m/h 0 %
14:00:00 clear sky 29.040 29.040 29.040 13 3.59 m/h 0 %
17:00:00 clear sky 23.050 23.050 23.050 19 3.52 m/h 0 %
20:00:00 clear sky 18.500 18.500 18.500 25 3.05 m/h 0 %
23:00:00 clear sky 16.850 16.850 16.850 28 3.32 m/h 0 %
31-Oct-2020 (Sat)
02:00:00 clear sky 15.980 15.980 15.980 29 3.2 m/h 0 %
05:00:00 clear sky 15.260 15.260 15.260 30 2.88 m/h 0 %
08:00:00 clear sky 19.750 19.750 19.750 24 2.32 m/h 0 %
11:00:00 clear sky 27.700 27.700 27.700 15 2.09 m/h 0 %
14:00:00 clear sky 29.350 29.350 29.350 13 3.88 m/h 0 %
17:00:00 clear sky 22.870 22.870 22.870 19 3.15 m/h 0 %
20:00:00 clear sky 18.900 18.900 18.900 24 2.86 m/h 0 %
23:00:00 clear sky 17.050 17.050 17.050 26 2.92 m/h 0 %
01-Nov-2020 (Sun)
02:00:00 clear sky 16.100 16.100 16.100 28 2.8 m/h 0 %
05:00:00 clear sky 15.470 15.470 15.470 28 2.62 m/h 0 %
08:00:00 clear sky 20.150 20.150 20.150 22 2.35 m/h 0 %
11:00:00 clear sky 27.380 27.380 27.380 14 2.2 m/h 0 %
14:00:00 clear sky 29.010 29.010 29.010 13 3.33 m/h 0 %
17:00:00 clear sky 22.470 22.470 22.470 20 2.28 m/h 0 %
20:00:00 clear sky 18.620 18.620 18.620 24 2.18 m/h 0 %
23:00:00 clear sky 17.160 17.160 17.160 27 2.78 m/h 0 %
02-Nov-2020 (Mon)
02:00:00 clear sky 16.490 16.490 16.490 29 3.01 m/h 0 %

Famous Cities (60)